Littcarr, Kentucky
Current Conditions -  °F | °C
As of 6:55 AM on Sunday 21 Dec 2014 (Local Time) from KLNP Reporting Station
Haze Haze  
Wind Chill: 30°   Ceiling: Unl
Heat Index: 30°   Visibility: 4mi
Dew Point: 30°   Wind: 3mph
Humidity: 100%   Direction: 110°ESE
Pressure: 30.21"   Gusts: NA
Location:  37.25°N, 82.96°W
Report Text: KLNP 211155Z AUTO 11003KT 4SM BR CLR M01/M01 A3021 RMK AO2
Loading
Personal Weather Stations






























Interactive Weather Map New forecast layout! Learn more

10-Day Weather Forecast

Advertisements
Track Severe Weather on mobile